Flight Track Log - Related Links

Times and Time Zones

All times are in EDT time to prevent confusion due to time zone crossing. See the SKW4672 flight status page for this flight to view local times or setup timezone preferences in your user account.

Time Position Orientation Groundspeed Altitude Reporting Facility
EDT Latitude Longitude Course Direction KTS MPH feet Rate Location/Type
Fri 10:10:40 AM 34.1392 -118.4128 324° Northwest 187 215 4,300  Level Los Angeles Center
Fri 10:11:40 AM 34.1803 -118.4489 344° North 155 178 6,000 2,100 Climbing Los Angeles Center
Fri 10:12:40 AM 34.2486 -118.4733 North 178 205 8,500 2,450 Climbing Los Angeles Center
Fri 10:13:40 AM 34.3175 -118.4703 27° Northeast 211 243 10,900 2,400 Climbing Los Angeles Center
Fri 10:14:40 AM 34.3767 -118.4342 55° Northeast 224 258 13,300 1,550 Climbing Los Angeles Center
Fri 10:15:40 AM 34.4242 -118.3525 69° East 254 292 14,000 1,200 Climbing Los Angeles Center
Fri 10:16:40 AM 34.4553 -118.2525 68° East 282 325 15,700 1,500 Climbing Los Angeles Center
Fri 10:17:40 AM 34.4861 -118.1575 71° East 292 336 17,000 1,400 Climbing Los Angeles Center
Fri 10:18:40 AM 34.5169 -118.0472 69° East 321 369 18,500 1,550 Climbing Los Angeles Center
Fri 10:19:40 AM 34.5522 -117.9347 69° East 342 394 20,100 1,450 Climbing Los Angeles Center
Fri 10:20:40 AM 34.5872 -117.8219 69° East 349 402 21,400 1,250 Climbing Los Angeles Center
Fri 10:21:40 AM 34.6242 -117.7039 70° East 359 413 22,600 1,250 Climbing Los Angeles Center
Fri 10:22:40 AM 34.6611 -117.5808 70° East 371 427 23,900 1,200 Climbing Los Angeles Center
Fri 10:23:40 AM 34.6981 -117.4578 70° East 376 433 25,000 550 Climbing Los Angeles Center
Fri 10:24:40 AM 34.7369 -117.3269 69° East 393 452 25,000 500 Level Los Angeles Center
Fri 10:25:40 AM 34.7781 -117.1936 71° East 405 466 26,000 1,000 Climbing Los Angeles Center
Fri 10:26:40 AM 34.8167 -117.0600 70° East 411 473 27,000 900 Climbing Los Angeles Center
Fri 10:27:40 AM 34.8572 -116.9261 58° Northeast 416 479 27,800 900 Climbing Los Angeles Center
Fri 10:28:40 AM 34.9183 -116.8078 48° Northeast 416 479 28,800 800 Climbing Los Angeles Center
Fri 10:29:40 AM 34.9983 -116.6994 49° Northeast 407 468 29,400 800 Climbing Los Angeles Center
Fri 10:30:40 AM 35.0761 -116.5908 48° Northeast 418 481 30,400 700 Climbing Los Angeles Center
Fri 10:31:40 AM 35.1556 -116.4819 49° Northeast 424 488 30,800 450 Climbing Los Angeles Center
Fri 10:32:40 AM 35.2331 -116.3731 49° Northeast 424 488 31,300 500 Climbing Los Angeles Center
Fri 10:33:40 AM 35.3128 -116.2586 48° Northeast 430 495 31,800 500 Climbing Los Angeles Center
Fri 10:34:40 AM 35.3942 -116.1467 50° Northeast 430 495 32,300 500 Climbing Los Angeles Center
Fri 10:35:40 AM 35.4733 -116.0294 49° Northeast 430 495 32,800 350 Climbing Los Angeles Center
Fri 10:36:40 AM 35.5525 -115.9169 45° Northeast 435 501 33,000 100 Climbing Los Angeles Center
Fri 10:37:40 AM 35.6483 -115.7992 32° Northeast 435 501 33,000  Level Los Angeles Center
Fri 10:38:40 AM 35.7397 -115.7297 35° Northeast 426 490 33,000  Level Los Angeles Center
Fri 10:39:40 AM 35.8458 -115.6397 37° Northeast 426 490 33,000  Level Los Angeles Center
Fri 10:40:40 AM 35.9414 -115.5519 35° Northeast 420 483 33,000  Level Los Angeles Center
Fri 10:41:40 AM 36.0369 -115.4689 36° Northeast 420 483 33,000  Level Los Angeles Center
Fri 10:42:41 AM 36.1306 -115.3858 34° Northeast 420 483 33,000  Level Los Angeles Center
Fri 10:43:40 AM 36.2281 -115.3053 35° Northeast 420 483 33,000  Level Los Angeles Center
Fri 10:44:40 AM 36.3256 -115.2217 35° Northeast 420 483 33,000  Level Los Angeles Center
Fri 10:45:40 AM 36.4228 -115.1381 35° Northeast 420 483 33,000  Level Los Angeles Center
Fri 10:46:40 AM 36.5203 -115.0542 35° Northeast 420 483 33,000  Level Los Angeles Center
Fri 10:47:40 AM 36.6175 -114.9700 35° Northeast 420 483 33,000  Level Los Angeles Center
Fri 10:48:25 AM 36.6894 -114.9075 35° Northeast 421 484 33,000  Level Salt Lake Center
Fri 10:49:28 AM 36.7831 -114.8244 36° Northeast 416 479 33,000  Level Salt Lake Center
Fri 10:50:40 AM 36.8964 -114.7219 35° Northeast 409 471 33,000  Level Los Angeles Center
Fri 10:51:40 AM 36.9892 -114.6397 36° Northeast 409 471 33,000  Level Los Angeles Center
Fri 10:52:40 AM 37.0842 -114.5547 34° Northeast 409 471 33,000  Level Los Angeles Center
Fri 10:53:40 AM 37.1831 -114.4719 35° Northeast 414 476 33,000  Level Los Angeles Center
Fri 10:54:40 AM 37.2758 -114.3892 37° Northeast 414 476 33,000  Level Los Angeles Center
Fri 10:55:40 AM 37.3603 -114.3089 36° Northeast 420 483 33,000  Level Los Angeles Center
Fri 10:56:40 AM 37.4528 -114.2256 34° Northeast 420 483 33,000  Level Los Angeles Center
Fri 10:57:40 AM 37.5494 -114.1422 36° Northeast 420 483 33,000  Level Los Angeles Center
Fri 10:58:40 AM 37.6439 -114.0558 36° Northeast 420 483 33,000  Level Los Angeles Center
Fri 10:59:52 AM 37.7622 -113.9486 36° Northeast 419 482 33,000  Level Salt Lake Center
Fri 11:00:55 AM 37.8586 -113.8606 36° Northeast 418 481 33,000  Level Salt Lake Center
Fri 11:01:57 AM 37.9542 -113.7717 35° Northeast 418 481 33,000  Level Salt Lake Center
Fri 11:03:00 AM 38.0514 -113.6839 35° Northeast 419 482 33,000  Level Salt Lake Center
Fri 11:04:02 AM 38.1489 -113.5956 36° Northeast 421 484 33,000  Level Salt Lake Center
Fri 11:05:05 AM 38.2447 -113.5069 36° Northeast 420 483 33,000  Level Salt Lake Center
Fri 11:06:08 AM 38.3597 -113.3989 36° Northeast 419 482 33,000  Level Salt Lake Center
Fri 11:07:10 AM 38.4558 -113.3094 36° Northeast 420 483 33,000  Level Salt Lake Center
Fri 11:08:13 AM 38.5525 -113.2192 37° Northeast 421 484 33,000 -48 Level Salt Lake Center
Fri 11:09:15 AM 38.6483 -113.1281 36° Northeast 422 486 32,900 -576 Descending Salt Lake Center
Fri 11:10:18 AM 38.7450 -113.0369 32° Northeast 423 487 31,800 -905 Descending Salt Lake Center
Fri 11:11:21 AM 38.8453 -112.9553 22° Northeast 421 484 31,000 -384 Descending Salt Lake Center
Fri 11:12:23 AM 38.9481 -112.9008 24° Northeast 395 455 31,000  Level Salt Lake Center
Fri 11:13:26 AM 39.0503 -112.8428 24° Northeast 391 450 31,000  Level Salt Lake Center
Fri 11:14:29 AM 39.1522 -112.7847 24° Northeast 393 452 31,000  Level Salt Lake Center
Fri 11:15:31 AM 39.2775 -112.7117 24° Northeast 401 461 31,000  Level Salt Lake Center
Fri 11:16:34 AM 39.3825 -112.6500 24° Northeast 407 468 31,000 -672 Level Salt Lake Center
Fri 11:17:36 AM 39.4886 -112.5889 24° Northeast 412 474 29,600 -1,824 Descending Salt Lake Center
Fri 11:18:39 AM 39.5936 -112.5275 25° Northeast 411 473 27,200 -2,238 Descending Salt Lake Center
Fri 11:19:42 AM 39.6903 -112.4686 24° Northeast 383 441 24,900 -2,256 Descending Salt Lake Center
Fri 11:20:44 AM 39.8017 -112.4042 25° Northeast 376 433 22,500 -2,208 Descending Salt Lake Center
Fri 11:21:47 AM 39.8928 -112.3497 17° North 363 418 20,300 -2,097 Descending Salt Lake Center
Fri 11:22:27 AM 39.9572 -112.3233 28° Northeast 351 404 18,900 -1,584 Descending Salt Lake Center
Fri 11:23:52 AM 40.0647 -112.2483 14° North 329 379 17,000 -1,216 Descending Salt Lake Center
Fri 11:24:55 AM 40.1531 -112.2206 14° North 324 373 15,900 -1,190 Descending Salt Lake Center
Fri 11:25:58 AM 40.2558 -112.1861 15° North 323 372 14,500 -1,152 Descending Salt Lake Center
Fri 11:27:00 AM 40.3408 -112.1572 14° North 316 364 13,500 -720 Descending Salt Lake Center
Fri 11:28:03 AM 40.4219 -112.1297 15° North 300 345 13,000 -288 Descending Salt Lake Center
Fri 11:29:05 AM 40.4989 -112.1033 10° North 284 327 12,900 -714 Descending Salt Lake Center
Fri 11:30:09 AM 40.5886 -112.0817 360° North 281 323 11,500 -905 Descending Salt Lake Center
Fri 11:31:11 AM 40.6681 -112.0819 355° North 274 315 11,000 -224 Descending Salt Lake Center
Fri 11:32:23 AM 40.7511 -112.0917 355° North 233 268 11,000  Level Salt Lake Center

Login

Don't have an account? Register now (free) for customized features, flight alerts, and more!